St Solene — FVDG — position and weather

sailwx.info

Track history (hours):
 
Tides and Currents Weather Stations Pressure Air Temp Water Temp Dewpoint Dewpoint Depression Visibility Wind Speed Wind Dir Waves Ship Positions

St Solene

Last reported at 2014-Aug-01 04:34 UTC. Time now 2014-Aug-01 05:55 UTC.
Position N 43°11' E 005°05'.

Length 104 m; draft 4.9 m.

Type: Tanker. MMSI: 226302000.

Date/timePositionNaut miles runAvg speedWind from/ knotsBaromVisibWave heightAir tempDewpointWater temp
2014-Aug-01 04:34N 43°11' E 005°05'1812.9
2014-Aug-01 03:08N 43°05' E 005°29'813.1
2014-Aug-01 02:33N 43°04' E 005°39'1413.6
2014-Aug-01 01:33N 42°59' E 005°57'1313.2
2014-Aug-01 00:33N 42°56' E 006°14'1313.4
2014-Jul-31 23:33N 42°57' E 006°32'1413.7
2014-Jul-31 22:33N 42°58' E 006°51'1413.5
2014-Jul-31 21:33N 42°59' E 007°10'1312.9
2014-Jul-31 20:33N 42°60' E 007°27'3712.4
2014-Jul-31 17:32N 43°03' E 008°18'63 9.1
2014-Jul-31 10:33N 42°33' E 009°34'1 0.7
2014-Jul-31 09:29N 42°33' E 009°32'30 0.9
2014-Jul-30 00:33N 43°02' E 009°37'1310.4
2014-Jul-29 23:15N 43°10' E 009°23'9610.8
2014-Jul-29 14:24N 42°57' E 007°13'1011.4
2014-Jul-29 13:33N 42°55' E 006°60'1111.1
2014-Jul-29 12:33N 42°54' E 006°45'1110.8
2014-Jul-29 11:32N 42°52' E 006°30'1110.8
2014-Jul-29 10:28N 42°51' E 006°14'1010.5
2014-Jul-29 09:32N 42°50' E 006°01'1010.4
2014-Jul-29 08:32N 42°49' E 005°47'1111.1
2014-Jul-29 07:33N 42°55' E 005°34'2311.4
2014-Jul-29 05:31N 43°08' E 005°08'1010.7
2014-Jul-29 04:33N 43°16' E 004°60'10 9.7
2014-Jul-29 03:33N 43°25' E 004°53'1 1.0
2014-Jul-29 02:31N 43°26' E 004°54'0 0.0
2014-Jul-29 01:31N 43°26' E 004°54'0 0.0
2014-Jul-29 00:31N 43°26' E 004°54'0 0.0
2014-Jul-28 23:32N 43°26' E 004°54'0 0.0
2014-Jul-28 22:31N 43°26' E 004°54'0 0.0
2014-Jul-28 21:31N 43°26' E 004°54'0 0.0
2014-Jul-28 20:31N 43°26' E 004°54'0 0.0
2014-Jul-28 19:31N 43°26' E 004°54'0 0.0
2014-Jul-28 18:25N 43°26' E 004°54'0 0.0
2014-Jul-28 17:31N 43°26' E 004°54'0 0.0
2014-Jul-28 16:25N 43°26' E 004°54'0 0.0
2014-Jul-28 15:07N 43°26' E 004°54'0 0.1
2014-Jul-28 14:31N 43°26' E 004°54'2 2.0
2014-Jul-28 13:32N 43°24' E 004°56'0 0.0
2014-Jul-28 12:32N 43°24' E 004°56'0 0.0
2014-Jul-28 11:32N 43°24' E 004°56'0 0.0
2014-Jul-28 10:32N 43°24' E 004°56'0 0.0
2014-Jul-28 09:32N 43°24' E 004°56'0 0.0
2014-Jul-28 08:26N 43°24' E 004°56'0 0.0
2014-Jul-28 07:32N 43°24' E 004°56'0 0.0
2014-Jul-28 06:32N 43°24' E 004°56'0 0.0
2014-Jul-28 05:32N 43°24' E 004°56'0 0.0
2014-Jul-28 04:29N 43°24' E 004°56'0 0.0
2014-Jul-28 03:32N 43°24' E 004°56'0 0.0
2014-Jul-28 02:32N 43°24' E 004°56'0 0.0
2014-Jul-28 01:32N 43°24' E 004°56'0 0.0
2014-Jul-28 00:32N 43°24' E 004°56'0 0.0
2014-Jul-27 23:32N 43°24' E 004°56'0 0.0
2014-Jul-27 22:32N 43°24' E 004°56'0 0.0
2014-Jul-27 21:32N 43°24' E 004°56'0 0.0
2014-Jul-27 20:32N 43°24' E 004°56'0 0.0
2014-Jul-27 19:32N 43°24' E 004°56'0 0.0
2014-Jul-27 18:32N 43°24' E 004°56'0 0.0
2014-Jul-27 17:32N 43°24' E 004°56'0 0.0
2014-Jul-27 16:29N 43°24' E 004°56'0 0.1
2014-Jul-27 15:33N 43°25' E 004°56'2 1.8
2014-Jul-27 14:31N 43°26' E 004°54'0 0.0
2014-Jul-27 13:31N 43°26' E 004°54'0 0.0
2014-Jul-27 12:31N 43°26' E 004°54'0 0.0
2014-Jul-27 11:31N 43°26' E 004°54'0 0.0
2014-Jul-27 10:31N 43°26' E 004°54'0 0.0
2014-Jul-27 09:31N 43°26' E 004°54'0 0.0
2014-Jul-27 08:31N 43°26' E 004°54'1 1.4
2014-Jul-27 07:33N 43°24' E 004°53'2 1.5
2014-Jul-27 06:31N 43°25' E 004°55'0 0.0
2014-Jul-27 05:31N 43°25' E 004°55'0 0.0
2014-Jul-27 04:31N 43°25' E 004°55'0 0.0
2014-Jul-27 03:34N 43°25' E 004°55'0 0.0
2014-Jul-27 02:31N 43°25' E 004°55'0 0.0
2014-Jul-27 01:28N 43°25' E 004°55'0 0.0
2014-Jul-27 00:34N 43°25' E 004°55'0 0.0
2014-Jul-26 23:31N 43°25' E 004°55'0 0.0
2014-Jul-26 22:34N 43°25' E 004°55'0 0.0
2014-Jul-26 21:34N 43°25' E 004°55'0 0.0
2014-Jul-26 20:31N 43°25' E 004°55'0 0.0
2014-Jul-26 19:34N 43°25' E 004°55'0 0.0
2014-Jul-26 18:31N 43°25' E 004°55'0 0.0
2014-Jul-26 17:31N 43°25' E 004°55'0 0.0
2014-Jul-26 16:34N 43°25' E 004°55'0 0.0
2014-Jul-26 15:31N 43°25' E 004°55'0 0.0
2014-Jul-26 14:34N 43°25' E 004°55'0 0.0
2014-Jul-26 13:31N 43°25' E 004°55'0 0.0
2014-Jul-26 12:31N 43°25' E 004°55'0 0.0
2014-Jul-26 11:28N 43°25' E 004°55'0 0.0
2014-Jul-26 10:34N 43°25' E 004°55'0 0.0
2014-Jul-26 09:34N 43°25' E 004°55'0 0.0
2014-Jul-26 08:31N 43°25' E 004°55'0 0.0
2014-Jul-26 07:31N 43°25' E 004°55'0 0.0
2014-Jul-26 06:31N 43°25' E 004°55'0 0.0
2014-Jul-26 05:34N 43°25' E 004°55'0 0.1
2014-Jul-26 04:34N 43°25' E 004°55'0 0.0
2014-Jul-26 03:31N 43°25' E 004°55'0 0.0
2014-Jul-26 02:34N 43°25' E 004°55'0 0.0
2014-Jul-26 01:34N 43°25' E 004°55'0 0.0
2014-Jul-26 00:34N 43°25' E 004°55'0 0.0
2014-Jul-25 23:33N 43°25' E 004°55'0 0.0
2014-Jul-25 22:28N 43°25' E 004°55'0 0.0
2014-Jul-25 21:34N 43°25' E 004°55'0 0.0
2014-Jul-25 20:31N 43°25' E 004°55'0 0.0
2014-Jul-25 19:31N 43°25' E 004°55'0 0.0
2014-Jul-25 18:31N 43°25' E 004°55'0 0.1
2014-Jul-25 17:30N 43°25' E 004°55'0 0.1
2014-Jul-25 16:34N 43°25' E 004°55'0 0.1
2014-Jul-25 15:34N 43°25' E 004°55'3 3.4
2014-Jul-25 14:33N 43°24' E 004°60'0 0.0
2014-Jul-25 13:33N 43°24' E 004°60'0 0.0
2014-Jul-25 12:33N 43°24' E 004°60'0 0.0
2014-Jul-25 11:30N 43°24' E 004°60'0 0.0
2014-Jul-25 10:33N 43°24' E 004°60'0 0.0
2014-Jul-25 09:33N 43°24' E 004°60'0 0.0
2014-Jul-25 08:33N 43°24' E 004°60'0 0.0
2014-Jul-25 07:30N 43°24' E 004°60'0 0.0
2014-Jul-25 06:33N 43°24' E 004°60'0 0.0
2014-Jul-25 05:33N 43°24' E 004°60'0 0.0
2014-Jul-25 04:33N 43°24' E 004°60'0 0.0
2014-Jul-25 03:33N 43°24' E 004°60'0 0.0
2014-Jul-25 02:33N 43°24' E 004°60'0 0.0
2014-Jul-25 01:33N 43°24' E 004°60'0 0.0
2014-Jul-25 00:33N 43°24' E 004°60'0 0.0
2014-Jul-24 23:33N 43°24' E 004°60'0 0.0
2014-Jul-24 22:33N 43°24' E 004°60'0 0.2
2014-Jul-24 21:33N 43°24' E 004°59'5 4.6
2014-Jul-24 20:33N 43°25' E 004°53'0 0.0
2014-Jul-24 19:33N 43°25' E 004°53'0 0.0
2014-Jul-24 18:33N 43°25' E 004°53'0 0.0
2014-Jul-24 17:33N 43°25' E 004°53'0 0.0
2014-Jul-24 16:33N 43°25' E 004°53'0 0.0
2014-Jul-24 15:33N 43°25' E 004°53'0 0.0
2014-Jul-24 14:33N 43°25' E 004°53'0 0.0
2014-Jul-24 13:33N 43°25' E 004°53'0 0.0
2014-Jul-24 12:33N 43°25' E 004°53'0 0.0
2014-Jul-24 11:33N 43°25' E 004°53'0 0.0
2014-Jul-24 10:33N 43°25' E 004°53'0 0.0
2014-Jul-24 09:33N 43°25' E 004°53'0 0.0
2014-Jul-24 08:33N 43°25' E 004°53'0 0.0
2014-Jul-24 07:33N 43°25' E 004°53'0 0.0
2014-Jul-24 06:33N 43°25' E 004°53'0 0.0
2014-Jul-24 05:33N 43°25' E 004°53'0 0.0
2014-Jul-24 04:33N 43°25' E 004°53'0 0.0
2014-Jul-24 03:33N 43°25' E 004°53'0 0.0
2014-Jul-24 02:33N 43°25' E 004°53'0 0.0
2014-Jul-24 01:33N 43°25' E 004°53'0 0.0
2014-Jul-24 00:33N 43°25' E 004°53'0 0.0
2014-Jul-23 23:33N 43°25' E 004°53'0 0.0
2014-Jul-23 22:33N 43°25' E 004°53'0 0.0
2014-Jul-23 21:33N 43°25' E 004°53'0 0.0
2014-Jul-23 20:33N 43°25' E 004°53'0 0.0
2014-Jul-23 19:33N 43°25' E 004°53'0 0.0
2014-Jul-23 18:33N 43°25' E 004°53'0 0.0
2014-Jul-23 17:33N 43°25' E 004°53'0 0.0
2014-Jul-23 16:33N 43°25' E 004°53'0 0.0
2014-Jul-23 15:33N 43°25' E 004°53'0 0.0
2014-Jul-23 14:33N 43°25' E 004°53'0 0.0
2014-Jul-23 13:33N 43°25' E 004°53'0 0.0
2014-Jul-23 12:33N 43°25' E 004°53'0 0.0
2014-Jul-23 11:33N 43°25' E 004°53'0 0.0
2014-Jul-23 10:33N 43°25' E 004°53'0 0.0
2014-Jul-23 09:33N 43°25' E 004°53'0 0.0
2014-Jul-23 08:34N 43°25' E 004°53'0 0.0
2014-Jul-23 07:33N 43°25' E 004°53'0 0.0
2014-Jul-23 06:33N 43°25' E 004°53'0 0.0
2014-Jul-23 05:33N 43°25' E 004°53'0 0.0
2014-Jul-23 04:33N 43°25' E 004°53'0 0.0
2014-Jul-23 03:33N 43°25' E 004°53'0 0.0
2014-Jul-23 02:33N 43°25' E 004°53'0 0.0
2014-Jul-23 01:33N 43°25' E 004°53'0 0.0
2014-Jul-23 00:33N 43°25' E 004°53'0 0.0
2014-Jul-22 23:33N 43°25' E 004°53'0 0.0
2014-Jul-22 22:33N 43°25' E 004°53'0 0.0
2014-Jul-22 21:33N 43°25' E 004°53'0 0.0
2014-Jul-22 20:33N 43°25' E 004°53'0 0.0
2014-Jul-22 19:33N 43°25' E 004°53'3 3.0
2014-Jul-22 18:33N 43°24' E 004°57'0 0.2
2014-Jul-22 17:33N 43°24' E 004°58'0 0.0
2014-Jul-22 16:33N 43°24' E 004°58'0 0.0
2014-Jul-22 15:33N 43°24' E 004°58'0 0.0
2014-Jul-22 14:33N 43°24' E 004°58'0 0.0
2014-Jul-22 13:33N 43°24' E 004°58'0 0.0
2014-Jul-22 12:33N 43°24' E 004°58'0 0.0
2014-Jul-22 11:33N 43°24' E 004°58'0 0.0
2014-Jul-22 10:33N 43°24' E 004°58'0 0.0
2014-Jul-22 09:33N 43°24' E 004°58'0 0.0
2014-Jul-22 08:33N 43°24' E 004°58'0 0.0
2014-Jul-22 07:33N 43°24' E 004°58'0 0.0
2014-Jul-22 06:33N 43°24' E 004°58'0 0.0
2014-Jul-22 05:33N 43°24' E 004°58'  
Track history (hours):
 
Tides and Currents Weather Stations Pressure Air Temp Water Temp Dewpoint Dewpoint Depression Visibility Wind Speed Wind Dir Waves Ship Positions

St Solene

Last reported at 2014-Aug-01 04:34 UTC. Time now 2014-Aug-01 05:55 UTC.
Position N 43°11' E 005°05'.

Length 104 m; draft 4.9 m.

Type: Tanker. MMSI: 226302000.

Date/timePositionNaut miles runAvg speedWind from/ knotsBaromVisibWave heightAir tempDewpointWater temp
2014-Aug-01 04:34N 43°11' E 005°05'1812.9
2014-Aug-01 03:08N 43°05' E 005°29'813.1
2014-Aug-01 02:33N 43°04' E 005°39'1413.6
2014-Aug-01 01:33N 42°59' E 005°57'1313.2
2014-Aug-01 00:33N 42°56' E 006°14'1313.4
2014-Jul-31 23:33N 42°57' E 006°32'1413.7
2014-Jul-31 22:33N 42°58' E 006°51'1413.5
2014-Jul-31 21:33N 42°59' E 007°10'1312.9
2014-Jul-31 20:33N 42°60' E 007°27'3712.4
2014-Jul-31 17:32N 43°03' E 008°18'63 9.1
2014-Jul-31 10:33N 42°33' E 009°34'1 0.7
2014-Jul-31 09:29N 42°33' E 009°32'30 0.9
2014-Jul-30 00:33N 43°02' E 009°37'1310.4
2014-Jul-29 23:15N 43°10' E 009°23'9610.8
2014-Jul-29 14:24N 42°57' E 007°13'1011.4
2014-Jul-29 13:33N 42°55' E 006°60'1111.1
2014-Jul-29 12:33N 42°54' E 006°45'1110.8
2014-Jul-29 11:32N 42°52' E 006°30'1110.8
2014-Jul-29 10:28N 42°51' E 006°14'1010.5
2014-Jul-29 09:32N 42°50' E 006°01'1010.4
2014-Jul-29 08:32N 42°49' E 005°47'1111.1
2014-Jul-29 07:33N 42°55' E 005°34'2311.4
2014-Jul-29 05:31N 43°08' E 005°08'1010.7
2014-Jul-29 04:33N 43°16' E 004°60'10 9.7
2014-Jul-29 03:33N 43°25' E 004°53'1 1.0
2014-Jul-29 02:31N 43°26' E 004°54'0 0.0
2014-Jul-29 01:31N 43°26' E 004°54'0 0.0
2014-Jul-29 00:31N 43°26' E 004°54'0 0.0
2014-Jul-28 23:32N 43°26' E 004°54'0 0.0
2014-Jul-28 22:31N 43°26' E 004°54'0 0.0
2014-Jul-28 21:31N 43°26' E 004°54'0 0.0
2014-Jul-28 20:31N 43°26' E 004°54'0 0.0
2014-Jul-28 19:31N 43°26' E 004°54'0 0.0
2014-Jul-28 18:25N 43°26' E 004°54'0 0.0
2014-Jul-28 17:31N 43°26' E 004°54'0 0.0
2014-Jul-28 16:25N 43°26' E 004°54'0 0.0
2014-Jul-28 15:07N 43°26' E 004°54'0 0.1
2014-Jul-28 14:31N 43°26' E 004°54'2 2.0
2014-Jul-28 13:32N 43°24' E 004°56'0 0.0
2014-Jul-28 12:32N 43°24' E 004°56'0 0.0
2014-Jul-28 11:32N 43°24' E 004°56'0 0.0
2014-Jul-28 10:32N 43°24' E 004°56'0 0.0
2014-Jul-28 09:32N 43°24' E 004°56'0 0.0
2014-Jul-28 08:26N 43°24' E 004°56'0 0.0
2014-Jul-28 07:32N 43°24' E 004°56'0 0.0
2014-Jul-28 06:32N 43°24' E 004°56'0 0.0
2014-Jul-28 05:32N 43°24' E 004°56'0 0.0
2014-Jul-28 04:29N 43°24' E 004°56'0 0.0
2014-Jul-28 03:32N 43°24' E 004°56'0 0.0
2014-Jul-28 02:32N 43°24' E 004°56'0 0.0
2014-Jul-28 01:32N 43°24' E 004°56'0 0.0
2014-Jul-28 00:32N 43°24' E 004°56'0 0.0
2014-Jul-27 23:32N 43°24' E 004°56'0 0.0
2014-Jul-27 22:32N 43°24' E 004°56'0 0.0
2014-Jul-27 21:32N 43°24' E 004°56'0 0.0
2014-Jul-27 20:32N 43°24' E 004°56'0 0.0
2014-Jul-27 19:32N 43°24' E 004°56'0 0.0
2014-Jul-27 18:32N 43°24' E 004°56'0 0.0
2014-Jul-27 17:32N 43°24' E 004°56'0 0.0
2014-Jul-27 16:29N 43°24' E 004°56'0 0.1
2014-Jul-27 15:33N 43°25' E 004°56'2 1.8
2014-Jul-27 14:31N 43°26' E 004°54'0 0.0
2014-Jul-27 13:31N 43°26' E 004°54'0 0.0
2014-Jul-27 12:31N 43°26' E 004°54'0 0.0
2014-Jul-27 11:31N 43°26' E 004°54'0 0.0
2014-Jul-27 10:31N 43°26' E 004°54'0 0.0
2014-Jul-27 09:31N 43°26' E 004°54'0 0.0
2014-Jul-27 08:31N 43°26' E 004°54'1 1.4
2014-Jul-27 07:33N 43°24' E 004°53'2 1.5
2014-Jul-27 06:31N 43°25' E 004°55'0 0.0
2014-Jul-27 05:31N 43°25' E 004°55'0 0.0
2014-Jul-27 04:31N 43°25' E 004°55'0 0.0
2014-Jul-27 03:34N 43°25' E 004°55'0 0.0
2014-Jul-27 02:31N 43°25' E 004°55'0 0.0
2014-Jul-27 01:28N 43°25' E 004°55'0 0.0
2014-Jul-27 00:34N 43°25' E 004°55'0 0.0
2014-Jul-26 23:31N 43°25' E 004°55'0 0.0
2014-Jul-26 22:34N 43°25' E 004°55'0 0.0
2014-Jul-26 21:34N 43°25' E 004°55'0 0.0
2014-Jul-26 20:31N 43°25' E 004°55'0 0.0
2014-Jul-26 19:34N 43°25' E 004°55'0 0.0
2014-Jul-26 18:31N 43°25' E 004°55'0 0.0
2014-Jul-26 17:31N 43°25' E 004°55'0 0.0
2014-Jul-26 16:34N 43°25' E 004°55'0 0.0
2014-Jul-26 15:31N 43°25' E 004°55'0 0.0
2014-Jul-26 14:34N 43°25' E 004°55'0 0.0
2014-Jul-26 13:31N 43°25' E 004°55'0 0.0
2014-Jul-26 12:31N 43°25' E 004°55'0 0.0
2014-Jul-26 11:28N 43°25' E 004°55'0 0.0
2014-Jul-26 10:34N 43°25' E 004°55'0 0.0
2014-Jul-26 09:34N 43°25' E 004°55'0 0.0
2014-Jul-26 08:31N 43°25' E 004°55'0 0.0
2014-Jul-26 07:31N 43°25' E 004°55'0 0.0
2014-Jul-26 06:31N 43°25' E 004°55'0 0.0
2014-Jul-26 05:34N 43°25' E 004°55'0 0.1
2014-Jul-26 04:34N 43°25' E 004°55'0 0.0
2014-Jul-26 03:31N 43°25' E 004°55'0 0.0
2014-Jul-26 02:34N 43°25' E 004°55'0 0.0
2014-Jul-26 01:34N 43°25' E 004°55'0 0.0
2014-Jul-26 00:34N 43°25' E 004°55'0 0.0
2014-Jul-25 23:33N 43°25' E 004°55'0 0.0
2014-Jul-25 22:28N 43°25' E 004°55'0 0.0
2014-Jul-25 21:34N 43°25' E 004°55'0 0.0
2014-Jul-25 20:31N 43°25' E 004°55'0 0.0
2014-Jul-25 19:31N 43°25' E 004°55'0 0.0
2014-Jul-25 18:31N 43°25' E 004°55'0 0.1
2014-Jul-25 17:30N 43°25' E 004°55'0 0.1
2014-Jul-25 16:34N 43°25' E 004°55'0 0.1
2014-Jul-25 15:34N 43°25' E 004°55'3 3.4
2014-Jul-25 14:33N 43°24' E 004°60'0 0.0
2014-Jul-25 13:33N 43°24' E 004°60'0 0.0
2014-Jul-25 12:33N 43°24' E 004°60'0 0.0
2014-Jul-25 11:30N 43°24' E 004°60'0 0.0
2014-Jul-25 10:33N 43°24' E 004°60'0 0.0
2014-Jul-25 09:33N 43°24' E 004°60'0 0.0
2014-Jul-25 08:33N 43°24' E 004°60'0 0.0
2014-Jul-25 07:30N 43°24' E 004°60'0 0.0
2014-Jul-25 06:33N 43°24' E 004°60'0 0.0
2014-Jul-25 05:33N 43°24' E 004°60'0 0.0
2014-Jul-25 04:33N 43°24' E 004°60'0 0.0
2014-Jul-25 03:33N 43°24' E 004°60'0 0.0
2014-Jul-25 02:33N 43°24' E 004°60'0 0.0
2014-Jul-25 01:33N 43°24' E 004°60'0 0.0
2014-Jul-25 00:33N 43°24' E 004°60'0 0.0
2014-Jul-24 23:33N 43°24' E 004°60'0 0.0
2014-Jul-24 22:33N 43°24' E 004°60'0 0.2
2014-Jul-24 21:33N 43°24' E 004°59'5 4.6
2014-Jul-24 20:33N 43°25' E 004°53'0 0.0
2014-Jul-24 19:33N 43°25' E 004°53'0 0.0
2014-Jul-24 18:33N 43°25' E 004°53'0 0.0
2014-Jul-24 17:33N 43°25' E 004°53'0 0.0
2014-Jul-24 16:33N 43°25' E 004°53'0 0.0
2014-Jul-24 15:33N 43°25' E 004°53'0 0.0
2014-Jul-24 14:33N 43°25' E 004°53'0 0.0
2014-Jul-24 13:33N 43°25' E 004°53'0 0.0
2014-Jul-24 12:33N 43°25' E 004°53'0 0.0
2014-Jul-24 11:33N 43°25' E 004°53'0 0.0
2014-Jul-24 10:33N 43°25' E 004°53'0 0.0
2014-Jul-24 09:33N 43°25' E 004°53'0 0.0
2014-Jul-24 08:33N 43°25' E 004°53'0 0.0
2014-Jul-24 07:33N 43°25' E 004°53'0 0.0
2014-Jul-24 06:33N 43°25' E 004°53'0 0.0
2014-Jul-24 05:33N 43°25' E 004°53'0 0.0
2014-Jul-24 04:33N 43°25' E 004°53'0 0.0
2014-Jul-24 03:33N 43°25' E 004°53'0 0.0
2014-Jul-24 02:33N 43°25' E 004°53'0 0.0
2014-Jul-24 01:33N 43°25' E 004°53'0 0.0
2014-Jul-24 00:33N 43°25' E 004°53'0 0.0
2014-Jul-23 23:33N 43°25' E 004°53'0 0.0
2014-Jul-23 22:33N 43°25' E 004°53'0 0.0
2014-Jul-23 21:33N 43°25' E 004°53'0 0.0
2014-Jul-23 20:33N 43°25' E 004°53'0 0.0
2014-Jul-23 19:33N 43°25' E 004°53'0 0.0
2014-Jul-23 18:33N 43°25' E 004°53'0 0.0
2014-Jul-23 17:33N 43°25' E 004°53'0 0.0
2014-Jul-23 16:33N 43°25' E 004°53'0 0.0
2014-Jul-23 15:33N 43°25' E 004°53'0 0.0
2014-Jul-23 14:33N 43°25' E 004°53'0 0.0
2014-Jul-23 13:33N 43°25' E 004°53'0 0.0
2014-Jul-23 12:33N 43°25' E 004°53'0 0.0
2014-Jul-23 11:33N 43°25' E 004°53'0 0.0
2014-Jul-23 10:33N 43°25' E 004°53'0 0.0
2014-Jul-23 09:33N 43°25' E 004°53'0 0.0
2014-Jul-23 08:34N 43°25' E 004°53'0 0.0
2014-Jul-23 07:33N 43°25' E 004°53'0 0.0
2014-Jul-23 06:33N 43°25' E 004°53'0 0.0
2014-Jul-23 05:33N 43°25' E 004°53'0 0.0
2014-Jul-23 04:33N 43°25' E 004°53'0 0.0
2014-Jul-23 03:33N 43°25' E 004°53'0 0.0
2014-Jul-23 02:33N 43°25' E 004°53'0 0.0
2014-Jul-23 01:33N 43°25' E 004°53'0 0.0
2014-Jul-23 00:33N 43°25' E 004°53'0 0.0
2014-Jul-22 23:33N 43°25' E 004°53'0 0.0
2014-Jul-22 22:33N 43°25' E 004°53'0 0.0
2014-Jul-22 21:33N 43°25' E 004°53'0 0.0
2014-Jul-22 20:33N 43°25' E 004°53'0 0.0
2014-Jul-22 19:33N 43°25' E 004°53'3 3.0
2014-Jul-22 18:33N 43°24' E 004°57'0 0.2
2014-Jul-22 17:33N 43°24' E 004°58'0 0.0
2014-Jul-22 16:33N 43°24' E 004°58'0 0.0
2014-Jul-22 15:33N 43°24' E 004°58'0 0.0
2014-Jul-22 14:33N 43°24' E 004°58'0 0.0
2014-Jul-22 13:33N 43°24' E 004°58'0 0.0
2014-Jul-22 12:33N 43°24' E 004°58'0 0.0
2014-Jul-22 11:33N 43°24' E 004°58'0 0.0
2014-Jul-22 10:33N 43°24' E 004°58'0 0.0
2014-Jul-22 09:33N 43°24' E 004°58'0 0.0
2014-Jul-22 08:33N 43°24' E 004°58'0 0.0
2014-Jul-22 07:33N 43°24' E 004°58'0 0.0
2014-Jul-22 06:33N 43°24' E 004°58'0 0.0
2014-Jul-22 05:33N 43°24' E 004°58'  

Dump ship's entire track history